Time;durP1;ratioP1;P1;durP2;ratioP2;P2;SDS_P1;SDS_P2;PMS_P1;PMS_P2;Temp;Humidity;BMP_temperature;BMP_pressure;BME280_temperature;BME280_humidity;BME280_pressure;Samples;Min_cycle;Max_cycle;Signal;HPM_P1;HPM_P2
2023/07/05 00:00:38;;;;;;;19.30;17.30;;;;;;;;;;84224;271;3011187;-40
2023/07/05 00:03:33;;;;;;;18.20;16.40;;;;;;;;;;83516;275;3028587;-39
2023/07/05 00:06:09;;;;;;;19.10;17.20;;;;;;;;;;84230;271;3010924;-40
2023/07/05 00:08:45;;;;;;;19.10;17.10;;;;;;;;;;84229;268;3010911;-40
2023/07/05 00:11:21;;;;;;;19.00;17.00;;;;;;;;;;84246;271;3010884;-39
2023/07/05 00:13:57;;;;;;;18.70;16.80;;;;;;;;;;84238;272;3011014;-39
2023/07/05 00:16:33;;;;;;;19.00;17.00;;;;;;;;;;84251;275;3011219;-40
2023/07/05 00:19:10;;;;;;;19.40;17.40;;;;;;;;;;84246;271;3010940;-39
2023/07/05 00:21:45;;;;;;;19.20;17.30;;;;;;;;;;83457;275;3028343;-39
2023/07/05 00:24:23;;;;;;;19.10;17.10;;;;;;;;;;84229;275;3011022;-38
2023/07/05 00:26:58;;;;;;;18.80;16.90;;;;;;;;;;83501;275;3031323;-39
2023/07/05 00:29:35;;;;;;;19.00;17.00;;;;;;;;;;83476;279;3031744;-39
2023/07/05 00:32:14;;;;;;;18.90;17.00;;;;;;;;;;84230;268;3011018;-38
2023/07/05 00:34:49;;;;;;;18.60;16.60;;;;;;;;;;83474;275;3028323;-38
2023/07/05 00:37:25;;;;;;;18.80;16.90;;;;;;;;;;84224;275;3011351;-38
2023/07/05 00:40:01;;;;;;;18.90;16.90;;;;;;;;;;84237;271;3010949;-39
2023/07/05 00:42:36;;;;;;;20.00;17.80;;;;;;;;;;83484;275;3028619;-39
2023/07/05 00:45:46;;;;;;;19.00;17.10;;;;;;;;;;84258;275;3011342;-39
2023/07/05 00:48:28;;;;;;;19.40;17.30;;;;;;;;;;83522;271;3030437;-39
2023/07/05 00:51:13;;;;;;;19.20;17.20;;;;;;;;;;83476;276;3031778;-38
2023/07/05 00:53:47;;;;;;;19.30;17.30;;;;;;;;;;83496;275;3028568;-38
2023/07/05 00:56:28;;;;;;;18.90;16.90;;;;;;;;;;84247;277;3011363;-39
2023/07/05 00:59:03;;;;;;;19.20;17.20;;;;;;;;;;83496;272;3027540;-40
2023/07/05 01:01:38;;;;;;;19.20;17.30;;;;;;;;;;84222;275;3011265;-40
2023/07/05 01:04:34;;;;;;;20.10;18.00;;;;;;;;;;83491;272;3030724;-40
2023/07/05 01:07:09;;;;;;;19.30;17.30;;;;;;;;;;83503;272;3031420;-39
2023/07/05 01:09:50;;;;;;;20.00;17.90;;;;;;;;;;83488;272;3029851;-40
2023/07/05 01:12:37;;;;;;;19.90;17.90;;;;;;;;;;83467;275;3028504;-39
2023/07/05 01:15:17;;;;;;;19.20;17.20;;;;;;;;;;83482;272;3030321;-39
2023/07/05 01:18:03;;;;;;;19.60;17.60;;;;;;;;;;83428;268;3031646;-39
2023/07/05 01:20:51;;;;;;;19.10;17.20;;;;;;;;;;83504;275;3028118;-39
2023/07/05 01:23:50;;;;;;;19.70;17.70;;;;;;;;;;83496;275;3027827;-39
2023/07/05 01:27:13;;;;;;;19.50;17.60;;;;;;;;;;83473;280;3031037;-40
2023/07/05 01:30:21;;;;;;;19.40;17.40;;;;;;;;;;83500;275;3031030;-39
2023/07/05 01:33:03;;;;;;;19.50;17.40;;;;;;;;;;83472;275;3027961;-39
2023/07/05 01:35:44;;;;;;;19.60;17.60;;;;;;;;;;83498;275;3027952;-38
2023/07/05 01:38:19;;;;;;;19.40;17.50;;;;;;;;;;83478;271;3031727;-38
2023/07/05 01:41:03;;;;;;;20.00;18.00;;;;;;;;;;83483;271;3031162;-38
2023/07/05 01:43:43;;;;;;;19.70;17.60;;;;;;;;;;83473;275;3028687;-39
2023/07/05 01:46:33;;;;;;;20.00;17.90;;;;;;;;;;83491;275;3028460;-40
2023/07/05 01:49:33;;;;;;;19.40;17.40;;;;;;;;;;83482;271;3030655;-40
2023/07/05 01:52:21;;;;;;;19.00;17.10;;;;;;;;;;83465;275;3031009;-39
2023/07/05 01:55:07;;;;;;;19.20;17.20;;;;;;;;;;83502;271;3028465;-39
2023/07/05 01:57:49;;;;;;;20.00;18.00;;;;;;;;;;83492;275;3027705;-39
2023/07/05 02:00:27;;;;;;;19.50;17.50;;;;;;;;;;83493;275;3030625;-39
2023/07/05 02:03:05;;;;;;;19.30;17.30;;;;;;;;;;83463;275;3031704;-40
2023/07/05 02:05:43;;;;;;;19.40;17.40;;;;;;;;;;83429;277;3028977;-38
2023/07/05 02:08:20;;;;;;;19.10;17.10;;;;;;;;;;83479;275;3027637;-39
2023/07/05 02:10:56;;;;;;;19.00;17.10;;;;;;;;;;83496;275;3031634;-39
2023/07/05 02:13:32;;;;;;;19.60;17.60;;;;;;;;;;83463;271;3031049;-39
2023/07/05 02:16:08;;;;;;;18.90;16.90;;;;;;;;;;83484;271;3028143;-38
2023/07/05 02:18:45;;;;;;;18.90;17.00;;;;;;;;;;83515;273;3027941;-38
2023/07/05 02:21:19;;;;;;;18.50;16.70;;;;;;;;;;83509;280;3030532;-38
2023/07/05 02:23:55;;;;;;;18.30;16.40;;;;;;;;;;84264;275;3011003;-39
2023/07/05 02:26:34;;;;;;;18.40;16.60;;;;;;;;;;84217;275;3010933;-39
2023/07/05 02:29:09;;;;;;;18.40;16.50;;;;;;;;;;83490;271;3031905;-39
2023/07/05 02:31:48;;;;;;;19.20;17.20;;;;;;;;;;83506;275;3028702;-38
2023/07/05 02:34:23;;;;;;;18.80;16.90;;;;;;;;;;83494;276;3026796;-38
2023/07/05 02:37:01;;;;;;;18.80;16.80;;;;;;;;;;84251;271;3011375;-39
2023/07/05 02:39:36;;;;;;;19.10;17.10;;;;;;;;;;83481;275;3030506;-39
2023/07/05 02:42:12;;;;;;;19.00;16.90;;;;;;;;;;84213;277;3011336;-38
2023/07/05 02:44:51;;;;;;;18.40;16.40;;;;;;;;;;84202;275;3011298;-38
2023/07/05 02:47:28;;;;;;;18.10;16.10;;;;;;;;;;83471;275;3032219;-38
2023/07/05 02:50:06;;;;;;;18.70;16.80;;;;;;;;;;83503;268;3028756;-39
2023/07/05 02:52:46;;;;;;;18.50;16.50;;;;;;;;;;83493;275;3028175;-38
2023/07/05 02:55:24;;;;;;;18.80;16.90;;;;;;;;;;83466;275;3030187;-39
2023/07/05 02:57:59;;;;;;;18.20;16.30;;;;;;;;;;83500;275;3031773;-39
2023/07/05 03:00:36;;;;;;;18.20;16.30;;;;;;;;;;84219;279;3010952;-39
2023/07/05 03:03:14;;;;;;;18.60;16.70;;;;;;;;;;83505;275;3028413;-39
2023/07/05 03:05:58;;;;;;;17.90;16.00;;;;;;;;;;83471;269;3034286;-39
2023/07/05 03:08:38;;;;;;;18.40;16.50;;;;;;;;;;83479;271;3030951;-39
2023/07/05 03:11:12;;;;;;;18.10;16.30;;;;;;;;;;83498;268;3032314;-39
2023/07/05 03:13:50;;;;;;;17.90;16.00;;;;;;;;;;83461;271;3029430;-39
2023/07/05 03:16:25;;;;;;;18.40;16.50;;;;;;;;;;83514;268;3027380;-38
2023/07/05 03:19:01;;;;;;;18.40;16.50;;;;;;;;;;84258;268;3010988;-38
2023/07/05 03:21:40;;;;;;;18.20;16.40;;;;;;;;;;83494;276;3030775;-38
2023/07/05 03:24:18;;;;;;;18.40;16.50;;;;;;;;;;83476;275;3031847;-38
2023/07/05 03:26:55;;;;;;;18.60;16.60;;;;;;;;;;83508;275;3028565;-39
2023/07/05 03:29:30;;;;;;;17.80;15.90;;;;;;;;;;83481;275;3027955;-38
2023/07/05 03:32:07;;;;;;;18.50;16.60;;;;;;;;;;83494;275;3030683;-39
2023/07/05 03:34:41;;;;;;;18.40;16.50;;;;;;;;;;83456;275;3031673;-39
2023/07/05 03:37:18;;;;;;;18.50;16.40;;;;;;;;;;84243;275;3011002;-39
2023/07/05 03:39:57;;;;;;;18.50;16.60;;;;;;;;;;83535;272;3028521;-39
2023/07/05 03:42:32;;;;;;;18.30;16.40;;;;;;;;;;83495;268;3027677;-38
2023/07/05 03:45:10;;;;;;;18.30;16.40;;;;;;;;;;84252;275;3010872;-38
2023/07/05 03:47:45;;;;;;;18.70;16.70;;;;;;;;;;83494;271;3030573;-38
2023/07/05 03:50:21;;;;;;;18.50;16.60;;;;;;;;;;84237;275;3011399;-39
2023/07/05 03:52:57;;;;;;;17.80;15.90;;;;;;;;;;83498;275;3031998;-38
2023/07/05 03:55:37;;;;;;;17.80;15.90;;;;;;;;;;84221;275;3010944;-38
2023/07/05 03:58:13;;;;;;;18.10;16.10;;;;;;;;;;83482;275;3028583;-38
2023/07/05 04:00:48;;;;;;;18.10;16.20;;;;;;;;;;84269;275;3011314;-38
2023/07/05 04:03:27;;;;;;;17.10;15.30;;;;;;;;;;84237;279;3011404;-39
2023/07/05 04:06:03;;;;;;;18.60;16.60;;;;;;;;;;83478;275;3027569;-38
2023/07/05 04:08:38;;;;;;;18.00;16.00;;;;;;;;;;83515;275;3031334;-38
2023/07/05 04:11:14;;;;;;;17.50;15.50;;;;;;;;;;84238;275;3010986;-38
2023/07/05 04:13:51;;;;;;;17.80;16.00;;;;;;;;;;83420;276;3032618;-39
2023/07/05 04:16:28;;;;;;;17.30;15.40;;;;;;;;;;83493;280;3028023;-38
2023/07/05 04:19:02;;;;;;;17.80;15.90;;;;;;;;;;83464;275;3027551;-39
2023/07/05 04:21:40;;;;;;;17.70;15.30;;;;;;;;;;84231;275;3011390;-39
2023/07/05 04:24:19;;;;;;;17.30;15.50;;;;;;;;;;83493;275;3030645;-39
2023/07/05 04:26:53;;;;;;;17.20;15.40;;;;;;;;;;83490;275;3031806;-38
2023/07/05 04:29:29;;;;;;;16.90;15.10;;;;;;;;;;84241;275;3011525;-39
2023/07/05 04:32:09;;;;;;;16.90;15.10;;;;;;;;;;84241;276;3010929;-39
2023/07/05 04:34:44;;;;;;;16.20;14.60;;;;;;;;;;83509;275;3029191;-38
2023/07/05 04:37:20;;;;;;;16.80;15.00;;;;;;;;;;84225;279;3011194;-38
2023/07/05 04:40:10;;;;;;;16.30;14.60;;;;;;;;;;83474;275;3027462;-38
2023/07/05 04:42:45;;;;;;;16.80;14.50;;;;;;;;;;83476;275;3031172;-39
2023/07/05 04:45:21;;;;;;;15.90;14.20;;;;;;;;;;84221;275;3011019;-39
2023/07/05 04:47:59;;;;;;;16.30;14.60;;;;;;;;;;83481;279;3032610;-39
2023/07/05 04:50:35;;;;;;;15.90;14.20;;;;;;;;;;83129;275;3011669;-39
2023/07/05 04:53:12;;;;;;;16.20;14.50;;;;;;;;;;83489;275;3028146;-38
2023/07/05 04:55:50;;;;;;;15.50;13.80;;;;;;;;;;83494;280;3027754;-38
2023/07/05 04:58:30;;;;;;;16.00;14.00;;;;;;;;;;83460;275;3031704;-38
2023/07/05 05:01:09;;;;;;;15.30;13.60;;;;;;;;;;83494;271;3032078;-39
2023/07/05 05:03:44;;;;;;;15.30;13.70;;;;;;;;;;83487;280;3028285;-38
2023/07/05 05:06:20;;;;;;;15.20;13.50;;;;;;;;;;84217;275;3011381;-37
2023/07/05 05:08:58;;;;;;;16.00;13.60;;;;;;;;;;83478;271;3027692;-38
2023/07/05 05:11:34;;;;;;;14.70;13.10;;;;;;;;;;84245;271;3010966;-39
2023/07/05 05:14:09;;;;;;;14.70;12.80;;;;;;;;;;83486;275;3030716;-39
2023/07/05 05:16:45;;;;;;;14.80;13.20;;;;;;;;;;83485;275;3031744;-38
2023/07/05 05:19:21;;;;;;;14.60;13.10;;;;;;;;;;84208;271;3010996;-39
2023/07/05 05:21:57;;;;;;;14.50;12.90;;;;;;;;;;83490;268;3028430;-39
2023/07/05 05:24:33;;;;;;;15.00;12.80;;;;;;;;;;84251;275;3011012;-38
2023/07/05 05:27:09;;;;;;;14.00;12.50;;;;;;;;;;84244;275;3011065;-39
2023/07/05 05:29:46;;;;;;;14.70;13.10;;;;;;;;;;84252;275;3011262;-39
2023/07/05 05:32:22;;;;;;;14.70;12.40;;;;;;;;;;84249;275;3011097;-40
2023/07/05 05:34:57;;;;;;;14.20;12.70;;;;;;;;;;84234;275;3011263;-39
2023/07/05 05:37:33;;;;;;;14.70;11.80;;;;;;;;;;84239;275;3011307;-39
2023/07/05 05:40:12;;;;;;;13.60;11.90;;;;;;;;;;84259;275;3011006;-38
2023/07/05 05:42:49;;;;;;;15.40;12.30;;;;;;;;;;83495;272;3027136;-39
2023/07/05 05:45:26;;;;;;;14.10;11.70;;;;;;;;;;83511;275;3031503;-39
2023/07/05 05:48:00;;;;;;;14.40;11.10;;;;;;;;;;83468;275;3031583;-39
2023/07/05 05:50:39;;;;;;;13.30;11.40;;;;;;;;;;84253;271;3011019;-38
2023/07/05 05:53:16;;;;;;;13.30;11.00;;;;;;;;;;83471;264;3029158;-38
2023/07/05 05:55:51;;;;;;;13.50;10.90;;;;;;;;;;83475;275;3027081;-38
2023/07/05 05:58:27;;;;;;;12.90;10.80;;;;;;;;;;83491;274;3030965;-39
2023/07/05 06:01:05;;;;;;;13.40;10.80;;;;;;;;;;84233;275;3010982;-39
2023/07/05 06:03:40;;;;;;;12.60;10.60;;;;;;;;;;83480;275;3032195;-39
2023/07/05 06:06:16;;;;;;;12.90;10.40;;;;;;;;;;84261;275;3011179;-38
2023/07/05 06:08:51;;;;;;;12.70;9.90;;;;;;;;;;84203;271;3011419;-39
2023/07/05 06:11:28;;;;;;;12.10;9.10;;;;;;;;;;84242;271;3010956;-38
2023/07/05 06:14:04;;;;;;;12.00;10.10;;;;;;;;;;84236;275;3010990;-39
2023/07/05 06:16:39;;;;;;;11.60;9.60;;;;;;;;;;83493;275;3028977;-38
2023/07/05 06:19:15;;;;;;;12.60;9.70;;;;;;;;;;84228;275;3010948;-40
2023/07/05 06:21:51;;;;;;;11.40;8.90;;;;;;;;;;84244;275;3011022;-38
2023/07/05 06:24:27;;;;;;;11.70;9.00;;;;;;;;;;84244;275;3010967;-39
2023/07/05 06:27:03;;;;;;;12.80;9.00;;;;;;;;;;84232;271;3011162;-40
2023/07/05 06:29:40;;;;;;;11.70;9.10;;;;;;;;;;83495;275;3027930;-38
2023/07/05 06:32:15;;;;;;;11.20;8.70;;;;;;;;;;83470;275;3030368;-38
2023/07/05 06:34:51;;;;;;;11.60;8.90;;;;;;;;;;84227;271;3011403;-38
2023/07/05 06:37:29;;;;;;;14.00;9.70;;;;;;;;;;83478;275;3031109;-38
2023/07/05 06:40:06;;;;;;;13.20;9.50;;;;;;;;;;84243;276;3011206;-39
2023/07/05 06:42:41;;;;;;;12.30;9.20;;;;;;;;;;83490;275;3027900;-39
2023/07/05 06:45:23;;;;;;;13.60;9.40;;;;;;;;;;83508;275;3027688;-39
2023/07/05 06:47:59;;;;;;;12.80;9.30;;;;;;;;;;84221;280;3010977;-39
2023/07/05 06:50:35;;;;;;;13.80;9.00;;;;;;;;;;84168;280;3010835;-39
2023/07/05 06:53:11;;;;;;;12.40;8.90;;;;;;;;;;84220;275;3010983;-38
2023/07/05 06:56:09;;;;;;;12.50;9.00;;;;;;;;;;83481;275;3030808;-38
2023/07/05 06:58:44;;;;;;;12.20;8.80;;;;;;;;;;83498;275;3031668;-39
2023/07/05 07:01:20;;;;;;;11.80;8.50;;;;;;;;;;84225;275;3010651;-39
2023/07/05 07:03:56;;;;;;;12.50;8.20;;;;;;;;;;84253;268;3010972;-40
2023/07/05 07:06:32;;;;;;;12.50;8.50;;;;;;;;;;83487;275;3028786;-39
2023/07/05 07:09:08;;;;;;;10.80;7.50;;;;;;;;;;83492;275;3027176;-38
2023/07/05 07:11:43;;;;;;;11.70;7.90;;;;;;;;;;83512;275;3030182;-38
2023/07/05 07:14:20;;;;;;;11.20;7.60;;;;;;;;;;84254;275;3011160;-39
2023/07/05 07:16:55;;;;;;;11.50;7.80;;;;;;;;;;83495;275;3031634;-39
2023/07/05 07:19:31;;;;;;;10.10;7.60;;;;;;;;;;83500;275;3028130;-39
2023/07/05 07:22:09;;;;;;;10.10;7.40;;;;;;;;;;83480;268;3027625;-39
2023/07/05 07:24:44;;;;;;;9.90;7.30;;;;;;;;;;83503;275;3030831;-39
2023/07/05 07:27:22;;;;;;;11.10;8.00;;;;;;;;;;83482;275;3032297;-39
2023/07/05 07:30:00;;;;;;;11.50;7.50;;;;;;;;;;83485;275;3029776;-39
2023/07/05 07:32:38;;;;;;;10.90;7.60;;;;;;;;;;83489;271;3027717;-38
2023/07/05 07:35:13;;;;;;;10.70;7.70;;;;;;;;;;83502;275;3031111;-38
2023/07/05 07:37:49;;;;;;;11.60;8.10;;;;;;;;;;84236;268;3011368;-38
2023/07/05 07:40:25;;;;;;;10.50;7.90;;;;;;;;;;84239;275;3011022;-41
2023/07/05 07:43:02;;;;;;;11.20;7.80;;;;;;;;;;83512;271;3031434;-39
2023/07/05 07:45:40;;;;;;;12.00;8.60;;;;;;;;;;84197;271;3011335;-40
2023/07/05 07:48:15;;;;;;;12.50;8.60;;;;;;;;;;83490;275;3028039;-38
2023/07/05 07:50:54;;;;;;;12.00;8.60;;;;;;;;;;84224;275;3011373;-39
2023/07/05 07:53:31;;;;;;;11.60;8.60;;;;;;;;;;83499;271;3027199;-36
2023/07/05 07:56:15;;;;;;;11.00;8.50;;;;;;;;;;84265;267;3011023;-39
2023/07/05 07:58:58;;;;;;;11.00;8.90;;;;;;;;;;83509;275;3032371;-40
2023/07/05 08:01:35;;;;;;;12.10;9.00;;;;;;;;;;83485;274;3031456;-39
2023/07/05 08:04:12;;;;;;;11.50;8.90;;;;;;;;;;83515;275;3028007;-36
2023/07/05 08:06:52;;;;;;;11.70;9.50;;;;;;;;;;83494;275;3027870;-37
2023/07/05 08:09:28;;;;;;;12.50;9.40;;;;;;;;;;83480;275;3030678;-37
2023/07/05 08:12:04;;;;;;;12.30;9.60;;;;;;;;;;83446;277;3033796;-37
2023/07/05 08:14:42;;;;;;;11.90;9.30;;;;;;;;;;83486;268;3027795;-38
2023/07/05 08:17:20;;;;;;;11.10;8.80;;;;;;;;;;84248;275;3011053;-38
2023/07/05 08:19:55;;;;;;;11.30;9.30;;;;;;;;;;83524;276;3027675;-39
2023/07/05 08:22:33;;;;;;;12.30;9.20;;;;;;;;;;83508;272;3038525;-39
2023/07/05 08:25:10;;;;;;;11.90;9.40;;;;;;;;;;83511;276;3031662;-38
2023/07/05 08:27:46;;;;;;;12.20;9.00;;;;;;;;;;83490;272;3028114;-38
2023/07/05 08:30:22;;;;;;;12.10;9.30;;;;;;;;;;83510;275;3027516;-38
2023/07/05 08:33:02;;;;;;;10.90;9.00;;;;;;;;;;83482;275;3038123;-40
2023/07/05 08:35:37;;;;;;;11.60;9.50;;;;;;;;;;83514;271;3031979;-38
2023/07/05 08:38:18;;;;;;;12.20;9.10;;;;;;;;;;84239;271;3011121;-39
2023/07/05 08:41:02;;;;;;;11.80;9.90;;;;;;;;;;83484;264;3028694;-38
2023/07/05 08:43:44;;;;;;;12.60;9.80;;;;;;;;;;83499;275;3027309;-40
2023/07/05 08:46:21;;;;;;;12.40;10.40;;;;;;;;;;83483;271;3031827;-38
2023/07/05 08:49:00;;;;;;;12.40;10.20;;;;;;;;;;83498;275;3031749;-38
2023/07/05 08:51:35;;;;;;;12.40;10.10;;;;;;;;;;83468;275;3029312;-39
2023/07/05 08:54:16;;;;;;;12.10;10.30;;;;;;;;;;84240;268;3011384;-39
2023/07/05 08:57:02;;;;;;;12.30;10.50;;;;;;;;;;83492;271;3027751;-39
2023/07/05 08:59:50;;;;;;;13.30;10.50;;;;;;;;;;83501;275;3030442;-39
2023/07/05 09:02:26;;;;;;;12.80;10.60;;;;;;;;;;83477;276;3031532;-39
2023/07/05 09:05:15;;;;;;;12.80;10.10;;;;;;;;;;83481;268;3028287;-39
2023/07/05 09:08:06;;;;;;;13.60;10.70;;;;;;;;;;83493;275;3027574;-39
2023/07/05 09:10:51;;;;;;;12.80;10.80;;;;;;;;;;83473;275;3031122;-39
2023/07/05 09:13:36;;;;;;;13.10;10.60;;;;;;;;;;83471;268;3031580;-39
2023/07/05 09:16:15;;;;;;;;;;;;;;;;;;83524;275;3028514;-39
2023/07/05 09:19:10;;;;;;;14.10;11.00;;;;;;;;;;83441;272;3026829;-43
2023/07/05 09:21:52;;;;;;;12.10;10.60;;;;;;;;;;83497;271;3030967;-40
2023/07/05 09:24:35;;;;;;;12.40;10.50;;;;;;;;;;83484;276;3033108;-39
2023/07/05 09:27:29;;;;;;;12.30;10.80;;;;;;;;;;83516;272;3029253;-39
2023/07/05 09:30:13;;;;;;;13.70;11.60;;;;;;;;;;83485;268;3027110;-38
2023/07/05 09:33:03;;;;;;;14.80;11.40;;;;;;;;;;83446;275;3031081;-37
2023/07/05 09:35:44;;;;;;;14.40;11.60;;;;;;;;;;83547;271;3031012;-37
2023/07/05 09:38:29;;;;;;;13.20;11.40;;;;;;;;;;83544;276;3028858;-38
2023/07/05 09:41:10;;;;;;;12.80;11.30;;;;;;;;;;83527;275;3027341;-37
2023/07/05 09:43:45;;;;;;;13.00;11.60;;;;;;;;;;83509;268;3030729;-37
2023/07/05 09:46:28;;;;;;;13.10;11.30;;;;;;;;;;84230;275;3011053;-37
2023/07/05 09:49:14;;;;;;;14.50;11.90;;;;;;;;;;83484;281;3031412;-37
2023/07/05 09:51:49;;;;;;;14.30;11.80;;;;;;;;;;83478;275;3028005;-41
2023/07/05 09:54:31;;;;;;;13.30;11.70;;;;;;;;;;84240;268;3011124;-38
2023/07/05 09:57:12;;;;;;;14.30;12.00;;;;;;;;;;83486;275;3027597;-39
2023/07/05 09:59:55;;;;;;;13.60;11.60;;;;;;;;;;83463;271;3030179;-37
2023/07/05 10:02:38;;;;;;;13.60;11.30;;;;;;;;;;83488;271;3031011;-37
2023/07/05 10:05:29;;;;;;;13.40;11.80;;;;;;;;;;83476;268;3028450;-37
2023/07/05 10:08:17;;;;;;;13.80;12.20;;;;;;;;;;83466;275;3028429;-37
2023/07/05 10:10:52;;;;;;;14.40;12.30;;;;;;;;;;83471;275;3030460;-39
2023/07/05 10:13:31;;;;;;;14.90;12.50;;;;;;;;;;84236;271;3011019;-37
2023/07/05 10:16:08;;;;;;;14.40;12.30;;;;;;;;;;83487;275;3032500;-37
2023/07/05 10:18:43;;;;;;;14.60;13.00;;;;;;;;;;83481;275;3028045;-37
2023/07/05 10:21:22;;;;;;;14.40;12.80;;;;;;;;;;83473;275;3027334;-37
2023/07/05 10:24:02;;;;;;;14.60;12.60;;;;;;;;;;83448;275;3031128;-40
2023/07/05 10:26:41;;;;;;;14.20;12.70;;;;;;;;;;83493;275;3031376;-37
2023/07/05 10:29:22;;;;;;;15.30;12.70;;;;;;;;;;83471;275;3028689;-38
2023/07/05 10:32:00;;;;;;;14.10;12.00;;;;;;;;;;83496;275;3027176;-37
2023/07/05 10:34:35;;;;;;;14.90;12.70;;;;;;;;;;83458;275;3030987;-36
2023/07/05 10:37:32;;;;;;;14.30;12.30;;;;;;;;;;84248;275;3010950;-37
2023/07/05 10:40:10;;;;;;;14.80;12.80;;;;;;;;;;83510;275;3032166;-37
2023/07/05 10:42:50;;;;;;;14.40;12.50;;;;;;;;;;83497;275;3029791;-36
2023/07/05 10:45:27;;;;;;;14.80;12.80;;;;;;;;;;83479;275;3027797;-37
2023/07/05 10:48:04;;;;;;;13.10;11.70;;;;;;;;;;83470;275;3030903;-37
2023/07/05 10:50:40;;;;;;;15.00;13.10;;;;;;;;;;83509;275;3032778;-38
2023/07/05 10:53:19;;;;;;;14.70;13.10;;;;;;;;;;84229;275;3011472;-38
2023/07/05 10:56:03;;;;;;;14.60;12.30;;;;;;;;;;83469;275;3033765;-38
2023/07/05 10:58:46;;;;;;;15.30;12.60;;;;;;;;;;83480;275;3028876;-39
2023/07/05 11:01:32;;;;;;;15.00;13.10;;;;;;;;;;83491;273;3030603;-39
2023/07/05 11:04:13;;;;;;;14.60;13.00;;;;;;;;;;83457;275;3031983;-39
2023/07/05 11:06:52;;;;;;;14.30;12.80;;;;;;;;;;83484;275;3028688;-39
2023/07/05 11:09:28;;;;;;;14.50;12.90;;;;;;;;;;83495;271;3027563;-39
2023/07/05 11:12:06;;;;;;;14.90;13.00;;;;;;;;;;83465;275;3031236;-39
2023/07/05 11:14:44;;;;;;;14.70;13.10;;;;;;;;;;83479;275;3031218;-39
2023/07/05 11:17:31;;;;;;;14.50;13.00;;;;;;;;;;83482;275;3028133;-39
2023/07/05 11:20:45;;;;;;;14.90;13.30;;;;;;;;;;83480;275;3027680;-39
2023/07/05 11:23:55;;;;;;;15.00;12.80;;;;;;;;;;83495;271;3030266;-39
2023/07/05 11:26:42;;;;;;;14.60;13.00;;;;;;;;;;83487;275;3031542;-39
2023/07/05 11:29:53;;;;;;;14.90;13.00;;;;;;;;;;83485;275;3027935;-39
2023/07/05 11:33:05;;;;;;;14.50;12.20;;;;;;;;;;83487;275;3027846;-39
2023/07/05 11:35:47;;;;;;;14.20;12.20;;;;;;;;;;83472;275;3031125;-39
2023/07/05 11:39:06;;;;;;;16.00;12.50;;;;;;;;;;83492;275;3037709;-38
2023/07/05 11:41:41;;;;;;;13.80;11.80;;;;;;;;;;83458;275;3028691;-38
2023/07/05 11:44:32;;;;;;;15.30;12.70;;;;;;;;;;84211;275;3010816;-37
2023/07/05 11:47:10;;;;;;;13.50;11.80;;;;;;;;;;83478;275;3026967;-38
2023/07/05 11:49:49;;;;;;;14.20;11.90;;;;;;;;;;83493;275;3031497;-38
2023/07/05 11:52:29;;;;;;;14.80;12.00;;;;;;;;;;83480;268;3032344;-36
2023/07/05 11:55:13;;;;;;;14.40;11.60;;;;;;;;;;83485;275;3028465;-37
2023/07/05 11:57:56;;;;;;;15.10;12.00;;;;;;;;;;83469;275;3026908;-36
2023/07/05 12:00:38;;;;;;;14.10;12.40;;;;;;;;;;83491;272;3030735;-38
2023/07/05 12:03:22;;;;;;;13.90;11.70;;;;;;;;;;83500;275;3031672;-37
2023/07/05 12:06:06;;;;;;;13.60;11.60;;;;;;;;;;83494;275;3028458;-37
2023/07/05 12:08:47;;;;;;;12.60;11.10;;;;;;;;;;83470;271;3027649;-37
2023/07/05 12:11:37;;;;;;;13.40;11.30;;;;;;;;;;83514;272;3030951;-40
2023/07/05 12:14:17;;;;;;;12.80;11.00;;;;;;;;;;83503;271;3032482;-38
2023/07/05 12:16:55;;;;;;;13.10;10.90;;;;;;;;;;83489;275;3029707;-37
2023/07/05 12:19:36;;;;;;;12.10;10.50;;;;;;;;;;83512;272;3027481;-37
2023/07/05 12:22:20;;;;;;;12.60;10.40;;;;;;;;;;83484;280;3031104;-38
2023/07/05 12:24:58;;;;;;;12.30;10.50;;;;;;;;;;83515;271;3031440;-39
2023/07/05 12:27:36;;;;;;;11.90;10.50;;;;;;;;;;83422;273;3027905;-39
2023/07/05 12:30:25;;;;;;;12.80;10.10;;;;;;;;;;83511;275;3026893;-36
2023/07/05 12:33:04;;;;;;;12.70;10.50;;;;;;;;;;83490;268;3031152;-39
2023/07/05 12:35:40;;;;;;;12.30;10.20;;;;;;;;;;83499;275;3031924;-39
2023/07/05 12:38:22;;;;;;;10.80;9.50;;;;;;;;;;83493;272;3028459;-39
2023/07/05 12:40:58;;;;;;;13.40;10.10;;;;;;;;;;83478;268;3027656;-38
2023/07/05 12:43:34;;;;;;;11.40;10.00;;;;;;;;;;83480;275;3031402;-37
2023/07/05 12:46:13;;;;;;;11.80;10.30;;;;;;;;;;83468;276;3031954;-37
2023/07/05 12:48:48;;;;;;;11.60;10.00;;;;;;;;;;83480;275;3028277;-38
2023/07/05 12:51:28;;;;;;;12.00;10.00;;;;;;;;;;83551;273;3895083;-37
2023/07/05 12:54:06;;;;;;;11.20;9.20;;;;;;;;;;83495;275;3028966;-37
2023/07/05 12:56:45;;;;;;;12.90;10.70;;;;;;;;;;83496;276;3030861;-38
2023/07/05 12:59:34;;;;;;;12.40;10.90;;;;;;;;;;83464;272;3032526;-40
2023/07/05 13:02:33;;;;;;;12.30;10.70;;;;;;;;;;83442;276;3029269;-37
2023/07/05 13:05:23;;;;;;;12.30;10.30;;;;;;;;;;83487;275;3028486;-38
2023/07/05 13:08:02;;;;;;;13.30;10.60;;;;;;;;;;83456;276;3031599;-36
2023/07/05 13:10:55;;;;;;;12.60;10.50;;;;;;;;;;83499;272;3031837;-39
2023/07/05 13:13:37;;;;;;;12.90;10.40;;;;;;;;;;83476;272;3027736;-35
2023/07/05 13:16:27;;;;;;;13.70;10.40;;;;;;;;;;83552;276;3027240;-34
2023/07/05 13:19:05;;;;;;;12.00;10.10;;;;;;;;;;83451;272;3031347;-34
2023/07/05 13:25:45;;;;;;;16.30;12.50;;;;;;;;;;83423;271;3027700;-34
2023/07/05 13:28:34;;;;;;;16.20;13.00;;;;;;;;;;83505;271;3026930;-34
2023/07/05 13:31:09;;;;;;;15.50;12.20;;;;;;;;;;83550;273;3030953;-34
2023/07/05 13:33:44;;;;;;;16.20;12.90;;;;;;;;;;83515;273;3031183;-38
2023/07/05 13:36:23;;;;;;;15.00;12.30;;;;;;;;;;84304;271;3011243;-34
2023/07/05 13:38:58;;;;;;;17.20;13.40;;;;;;;;;;83502;269;3029093;-34
2023/07/05 13:41:36;;;;;;;18.10;14.40;;;;;;;;;;83505;278;3027793;-34
2023/07/05 13:44:19;;;;;;;18.80;14.70;;;;;;;;;;83530;272;3030651;-34
2023/07/05 13:46:54;;;;;;;;;;;;;;;;;;83542;273;3032006;-34
2023/07/05 13:49:38;;;;;;;19.10;14.00;;;;;;;;;;84817;273;3011676;-35
2023/07/05 13:52:20;;;;;;;19.00;14.90;;;;;;;;;;83544;273;3034072;-35
2023/07/05 13:54:57;;;;;;;17.10;13.70;;;;;;;;;;83528;273;3030996;-34
2023/07/05 13:57:38;;;;;;;15.00;12.20;;;;;;;;;;84252;273;3011012;-33
2023/07/05 14:00:18;;;;;;;14.40;12.10;;;;;;;;;;83473;271;3031934;-35
2023/07/05 14:02:56;;;;;;;14.60;11.90;;;;;;;;;;83515;271;3028135;-34
2023/07/05 14:05:36;;;;;;;13.80;11.90;;;;;;;;;;83528;276;3027039;-34
2023/07/05 14:08:21;;;;;;;14.50;11.60;;;;;;;;;;83523;267;3032270;-35
2023/07/05 14:10:56;;;;;;;14.00;11.80;;;;;;;;;;83514;271;3031600;-34
2023/07/05 14:13:35;;;;;;;12.70;10.80;;;;;;;;;;84258;273;3010693;-35
2023/07/05 14:16:14;;;;;;;13.80;11.50;;;;;;;;;;83547;273;3028873;-34
2023/07/05 14:18:51;;;;;;;13.40;11.00;;;;;;;;;;83519;274;3027709;-34
2023/07/05 14:21:35;;;;;;;13.40;11.00;;;;;;;;;;83533;273;3030613;-34
2023/07/05 14:24:16;;;;;;;13.40;11.20;;;;;;;;;;83561;273;3032246;-33
2023/07/05 14:26:50;;;;;;;13.30;10.70;;;;;;;;;;83562;273;3028678;-34
2023/07/05 14:29:28;;;;;;;13.30;10.80;;;;;;;;;;84318;272;3011121;-33
2023/07/05 14:32:04;;;;;;;12.70;10.50;;;;;;;;;;83604;273;3027868;-33
2023/07/05 14:34:39;;;;;;;12.20;10.60;;;;;;;;;;83584;272;3031888;-34
2023/07/05 14:37:15;;;;;;;12.50;10.30;;;;;;;;;;84362;272;3011279;-35
2023/07/05 14:39:50;;;;;;;13.00;10.50;;;;;;;;;;84309;269;3011130;-35
2023/07/05 14:42:27;;;;;;;11.80;10.10;;;;;;;;;;84319;273;3010823;-34
2023/07/05 14:45:03;;;;;;;13.40;11.00;;;;;;;;;;83533;269;3032031;-34
2023/07/05 14:47:42;;;;;;;12.80;10.20;;;;;;;;;;84299;273;3011013;-34
2023/07/05 14:50:20;;;;;;;12.20;10.80;;;;;;;;;;83548;269;3028119;-33
2023/07/05 14:52:59;;;;;;;12.40;10.80;;;;;;;;;;84311;269;3010850;-33
2023/07/05 14:55:35;;;;;;;12.40;10.50;;;;;;;;;;83541;269;3028864;-33
2023/07/05 14:58:15;;;;;;;12.70;10.40;;;;;;;;;;83565;272;3031018;-34
2023/07/05 15:00:51;;;;;;;13.10;10.50;;;;;;;;;;83551;269;3031559;-33
2023/07/05 15:03:31;;;;;;;12.10;10.30;;;;;;;;;;83526;273;3034773;-33
2023/07/05 15:06:10;;;;;;;11.90;10.30;;;;;;;;;;83557;272;3027737;-33
2023/07/05 15:08:46;;;;;;;13.40;10.70;;;;;;;;;;83510;269;3031417;-33
2023/07/05 15:11:21;;;;;;;12.00;10.60;;;;;;;;;;83536;272;3031843;-33
2023/07/05 15:13:58;;;;;;;12.60;10.60;;;;;;;;;;84282;270;3011011;-33
2023/07/05 15:16:36;;;;;;;12.00;10.50;;;;;;;;;;83519;273;3027814;-33
2023/07/05 15:19:10;;;;;;;12.20;10.00;;;;;;;;;;83542;272;3027100;-33
2023/07/05 15:21:49;;;;;;;12.40;10.20;;;;;;;;;;84258;272;3010884;-33